sensor_id;sensor_type;location;lat;lon;timestamp;pressure;altitude;pressure_sealevel;temperature;humidity
65718;BME280;52445;52.466;-1.016;2022-10-26T00:00:30;99171.31;;;13.97;81.08
65718;BME280;52445;52.466;-1.016;2022-10-26T00:02:57;99173.78;;;14.01;80.34
65718;BME280;52445;52.466;-1.016;2022-10-26T00:05:23;99171.13;;;14.03;80.19
65718;BME280;52445;52.466;-1.016;2022-10-26T00:07:50;99167.78;;;13.98;80.84
65718;BME280;52445;52.466;-1.016;2022-10-26T00:10:17;99162.31;;;14.07;80.24
65718;BME280;52445;52.466;-1.016;2022-10-26T00:12:49;99167.69;;;14.01;81.09
65718;BME280;52445;52.466;-1.016;2022-10-26T00:15:17;99162.41;;;14.04;80.84
65718;BME280;52445;52.466;-1.016;2022-10-26T00:17:46;99159.66;;;14.09;79.67
65718;BME280;52445;52.466;-1.016;2022-10-26T00:20:13;99153.59;;;14.08;80.07
65718;BME280;52445;52.466;-1.016;2022-10-26T00:22:40;99162.13;;;14.13;80.30
65718;BME280;52445;52.466;-1.016;2022-10-26T00:25:07;99158.66;;;14.13;79.98
65718;BME280;52445;52.466;-1.016;2022-10-26T00:27:34;99152.47;;;14.17;79.45
65718;BME280;52445;52.466;-1.016;2022-10-26T00:30:02;99149.81;;;14.19;79.65
65718;BME280;52445;52.466;-1.016;2022-10-26T00:32:29;99160.13;;;14.22;79.66
65718;BME280;52445;52.466;-1.016;2022-10-26T00:34:56;99153.31;;;14.18;79.79
65718;BME280;52445;52.466;-1.016;2022-10-26T00:37:41;99150.72;;;14.18;79.64
65718;BME280;52445;52.466;-1.016;2022-10-26T00:40:08;99139.47;;;14.16;79.66
65718;BME280;52445;52.466;-1.016;2022-10-26T00:42:34;99143.09;;;14.11;80.22
65718;BME280;52445;52.466;-1.016;2022-10-26T00:45:20;99153.41;;;14.14;79.91
65718;BME280;52445;52.466;-1.016;2022-10-26T00:47:51;99148.16;;;14.16;80.29
65718;BME280;52445;52.466;-1.016;2022-10-26T00:50:27;99136.09;;;14.13;80.08
65718;BME280;52445;52.466;-1.016;2022-10-26T00:52:57;99136.09;;;14.13;79.93
65718;BME280;52445;52.466;-1.016;2022-10-26T00:55:28;99139.66;;;14.09;80.18
65718;BME280;52445;52.466;-1.016;2022-10-26T00:57:56;99145.69;;;14.11;80.55
65718;BME280;52445;52.466;-1.016;2022-10-26T01:00:23;99140.47;;;14.11;80.82
65718;BME280;52445;52.466;-1.016;2022-10-26T01:02:50;99129.25;;;14.09;80.36
65718;BME280;52445;52.466;-1.016;2022-10-26T01:05:18;99139.66;;;14.09;80.44
65718;BME280;52445;52.466;-1.016;2022-10-26T01:07:45;99130.25;;;14.05;81.02
65718;BME280;52445;52.466;-1.016;2022-10-26T01:10:13;99118.84;;;14.09;80.81
65718;BME280;52445;52.466;-1.016;2022-10-26T01:12:41;99125.22;;;14.00;81.45
65718;BME280;52445;52.466;-1.016;2022-10-26T01:15:08;99120.75;;;14.04;81.21
65718;BME280;52445;52.466;-1.016;2022-10-26T01:20:36;99132.78;;;14.08;80.69
65718;BME280;52445;52.466;-1.016;2022-10-26T01:23:28;99120.66;;;14.07;80.95
65718;BME280;52445;52.466;-1.016;2022-10-26T01:31:29;99121.13;;;14.20;80.79
65718;BME280;52445;52.466;-1.016;2022-10-26T01:34:05;99117.66;;;14.20;80.77
65718;BME280;52445;52.466;-1.016;2022-10-26T01:36:45;99110.59;;;14.23;80.56
65718;BME280;52445;52.466;-1.016;2022-10-26T01:39:18;99104.53;;;14.23;80.90
65718;BME280;52445;52.466;-1.016;2022-10-26T01:41:49;99098.47;;;14.22;80.75
65718;BME280;52445;52.466;-1.016;2022-10-26T01:44:20;99101.78;;;14.27;81.04
65718;BME280;52445;52.466;-1.016;2022-10-26T01:46:52;99099.22;;;14.26;81.19
65718;BME280;52445;52.466;-1.016;2022-10-26T01:49:20;99101.97;;;14.21;81.27
65718;BME280;52445;52.466;-1.016;2022-10-26T01:51:48;99104.22;;;14.32;81.05
65718;BME280;52445;52.466;-1.016;2022-10-26T01:54:15;99105.81;;;14.36;80.76
65718;BME280;52445;52.466;-1.016;2022-10-26T01:56:46;99093.41;;;14.45;80.38
65718;BME280;52445;52.466;-1.016;2022-10-26T02:13:28;99060.66;;;14.63;80.81
65718;BME280;52445;52.466;-1.016;2022-10-26T02:21:37;99054.38;;;14.69;80.89
65718;BME280;52445;52.466;-1.016;2022-10-26T02:24:07;99050.84;;;14.70;80.85
65718;BME280;52445;52.466;-1.016;2022-10-26T02:26:38;99045.63;;;14.70;80.67
65718;BME280;52445;52.466;-1.016;2022-10-26T02:29:08;99038.66;;;14.70;80.61
65718;BME280;52445;52.466;-1.016;2022-10-26T02:31:37;99039.34;;;14.75;80.56
65718;BME280;52445;52.466;-1.016;2022-10-26T02:34:08;99027.97;;;14.78;80.74
65718;BME280;52445;52.466;-1.016;2022-10-26T02:36:41;99015.03;;;14.75;80.52
65718;BME280;52445;52.466;-1.016;2022-10-26T02:39:10;99011.47;;;14.77;80.92
65718;BME280;52445;52.466;-1.016;2022-10-26T02:41:39;99010.53;;;14.80;80.04
65718;BME280;52445;52.466;-1.016;2022-10-26T02:44:14;99002.00;;;14.75;80.73
65718;BME280;52445;52.466;-1.016;2022-10-26T02:46:43;99008.81;;;14.79;80.22
65718;BME280;52445;52.466;-1.016;2022-10-26T02:49:10;99015.88;;;14.77;80.59
65718;BME280;52445;52.466;-1.016;2022-10-26T02:52:00;99008.06;;;14.75;80.42
65718;BME280;52445;52.466;-1.016;2022-10-26T02:57:11;99012.34;;;14.78;80.56
65718;BME280;52445;52.466;-1.016;2022-10-26T02:59:42;99006.16;;;14.81;80.63
65718;BME280;52445;52.466;-1.016;2022-10-26T03:02:15;99004.53;;;14.78;80.59
65718;BME280;52445;52.466;-1.016;2022-10-26T03:04:43;99010.41;;;14.83;80.18
65718;BME280;52445;52.466;-1.016;2022-10-26T03:07:09;99006.81;;;14.87;79.90
65718;BME280;52445;52.466;-1.016;2022-10-26T03:09:36;99005.09;;;14.86;80.58
65718;BME280;52445;52.466;-1.016;2022-10-26T03:12:03;98992.31;;;14.80;80.83
65718;BME280;52445;52.466;-1.016;2022-10-26T03:14:29;99002.72;;;14.80;80.63
65718;BME280;52445;52.466;-1.016;2022-10-26T03:16:56;99008.72;;;14.82;80.58
65718;BME280;52445;52.466;-1.016;2022-10-26T03:19:22;99003.59;;;14.79;80.72
65718;BME280;52445;52.466;-1.016;2022-10-26T03:21:49;99012.97;;;14.85;79.98
65718;BME280;52445;52.466;-1.016;2022-10-26T03:24:16;99006.06;;;14.84;80.42
65718;BME280;52445;52.466;-1.016;2022-10-26T03:26:42;98997.31;;;14.85;80.12
65718;BME280;52445;52.466;-1.016;2022-10-26T03:29:09;99005.34;;;14.80;80.25
65718;BME280;52445;52.466;-1.016;2022-10-26T03:31:35;98997.38;;;14.83;80.52
65718;BME280;52445;52.466;-1.016;2022-10-26T03:34:02;99002.53;;;14.85;80.43
65718;BME280;52445;52.466;-1.016;2022-10-26T03:36:29;99002.53;;;14.85;80.02
65718;BME280;52445;52.466;-1.016;2022-10-26T03:38:55;99006.81;;;14.87;80.72
65718;BME280;52445;52.466;-1.016;2022-10-26T03:41:22;99006.66;;;14.90;80.54
65718;BME280;52445;52.466;-1.016;2022-10-26T03:43:48;99013.59;;;14.92;80.67
65718;BME280;52445;52.466;-1.016;2022-10-26T03:46:15;99015.06;;;14.99;79.96
65718;BME280;52445;52.466;-1.016;2022-10-26T03:48:42;99017.66;;;14.99;80.26
65718;BME280;52445;52.466;-1.016;2022-10-26T03:51:08;99016.66;;;15.03;80.17
65718;BME280;52445;52.466;-1.016;2022-10-26T03:53:35;99014.06;;;15.03;80.82
65718;BME280;52445;52.466;-1.016;2022-10-26T03:56:02;99021.72;;;15.06;80.70
65718;BME280;52445;52.466;-1.016;2022-10-26T03:58:28;99015.63;;;15.07;80.17
65718;BME280;52445;52.466;-1.016;2022-10-26T04:00:55;99013.84;;;15.08;80.22
65718;BME280;52445;52.466;-1.016;2022-10-26T04:03:21;99012.88;;;15.10;80.01
65718;BME280;52445;52.466;-1.016;2022-10-26T04:05:48;99018.97;;;15.11;80.38
65718;BME280;52445;52.466;-1.016;2022-10-26T04:08:14;99009.41;;;15.11;80.05
65718;BME280;52445;52.466;-1.016;2022-10-26T04:10:41;99009.50;;;15.08;80.63
65718;BME280;52445;52.466;-1.016;2022-10-26T04:13:10;99011.09;;;15.12;80.63
65718;BME280;52445;52.466;-1.016;2022-10-26T04:15:37;99016.91;;;15.19;80.44
65718;BME280;52445;52.466;-1.016;2022-10-26T04:18:03;99018.59;;;15.20;80.03
65718;BME280;52445;52.466;-1.016;2022-10-26T04:20:32;99018.78;;;15.15;80.73
65718;BME280;52445;52.466;-1.016;2022-10-26T04:23:00;99022.19;;;15.18;80.61
65718;BME280;52445;52.466;-1.016;2022-10-26T04:25:27;99026.63;;;15.15;80.50
65718;BME280;52445;52.466;-1.016;2022-10-26T04:27:59;99026.63;;;15.15;80.96
65718;BME280;52445;52.466;-1.016;2022-10-26T04:30:26;99027.66;;;15.11;81.31
65718;BME280;52445;52.466;-1.016;2022-10-26T04:32:52;99026.50;;;15.19;81.34
65718;BME280;52445;52.466;-1.016;2022-10-26T04:35:19;99020.44;;;15.18;81.00
65718;BME280;52445;52.466;-1.016;2022-10-26T04:37:46;99024.00;;;15.15;81.40
65718;BME280;52445;52.466;-1.016;2022-10-26T04:40:12;99020.25;;;15.23;80.75
65718;BME280;52445;52.466;-1.016;2022-10-26T04:42:42;99028.91;;;15.23;81.59
65718;BME280;52445;52.466;-1.016;2022-10-26T04:45:09;99025.28;;;15.27;81.04
65718;BME280;52445;52.466;-1.016;2022-10-26T04:47:36;99032.94;;;15.32;80.64
65718;BME280;52445;52.466;-1.016;2022-10-26T04:50:03;99020.69;;;15.34;80.41
65718;BME280;52445;52.466;-1.016;2022-10-26T04:52:30;99022.63;;;15.29;80.92
65718;BME280;52445;52.466;-1.016;2022-10-26T04:54:56;99015.75;;;15.26;80.83
65718;BME280;52445;52.466;-1.016;2022-10-26T04:57:23;99020.13;;;15.26;80.71
65718;BME280;52445;52.466;-1.016;2022-10-26T04:59:49;99018.31;;;15.28;80.50
65718;BME280;52445;52.466;-1.016;2022-10-26T05:02:16;99022.00;;;15.22;80.39
65718;BME280;52445;52.466;-1.016;2022-10-26T05:04:43;99031.72;;;15.19;80.21
65718;BME280;52445;52.466;-1.016;2022-10-26T05:07:09;99037.00;;;15.17;80.24
65718;BME280;52445;52.466;-1.016;2022-10-26T05:09:36;99036.25;;;15.13;80.27
65718;BME280;52445;52.466;-1.016;2022-10-26T05:12:03;99036.25;;;15.13;79.90
65718;BME280;52445;52.466;-1.016;2022-10-26T05:14:29;99039.88;;;15.09;80.53
65718;BME280;52445;52.466;-1.016;2022-10-26T05:16:56;99034.81;;;15.04;80.39
65718;BME280;52445;52.466;-1.016;2022-10-26T05:19:23;99040.03;;;15.04;80.29
65718;BME280;52445;52.466;-1.016;2022-10-26T05:21:49;99039.31;;;15.01;80.86
65718;BME280;52445;52.466;-1.016;2022-10-26T05:24:18;99039.59;;;14.93;80.09
65718;BME280;52445;52.466;-1.016;2022-10-26T05:26:45;99047.50;;;14.92;80.03
65718;BME280;52445;52.466;-1.016;2022-10-26T05:29:12;99048.38;;;14.90;79.92
65718;BME280;52445;52.466;-1.016;2022-10-26T05:31:38;99054.47;;;14.91;79.95
65718;BME280;52445;52.466;-1.016;2022-10-26T05:34:05;99064.03;;;14.90;79.84
65718;BME280;52445;52.466;-1.016;2022-10-26T05:36:31;99071.06;;;14.88;80.30
65718;BME280;52445;52.466;-1.016;2022-10-26T05:38:58;99071.06;;;14.88;80.26
65718;BME280;52445;52.466;-1.016;2022-10-26T05:41:25;99067.34;;;14.96;80.12
65718;BME280;52445;52.466;-1.016;2022-10-26T05:43:51;99057.78;;;14.95;80.70
65718;BME280;52445;52.466;-1.016;2022-10-26T05:46:18;99071.63;;;14.97;80.12
65718;BME280;52445;52.466;-1.016;2022-10-26T05:48:44;99079.34;;;15.00;80.42
65718;BME280;52445;52.466;-1.016;2022-10-26T05:51:11;99086.25;;;15.01;79.66
65718;BME280;52445;52.466;-1.016;2022-10-26T05:53:38;99091.41;;;15.02;79.79
65718;BME280;52445;52.466;-1.016;2022-10-26T05:56:33;99096.63;;;15.02;79.94
65718;BME280;52445;52.466;-1.016;2022-10-26T05:59:00;99103.28;;;15.11;80.02
65718;BME280;52445;52.466;-1.016;2022-10-26T06:06:52;99103.38;;;15.08;79.29
65718;BME280;52445;52.466;-1.016;2022-10-26T06:09:20;99100.88;;;15.05;79.43
65718;BME280;52445;52.466;-1.016;2022-10-26T06:11:47;99101.91;;;15.01;79.25
65718;BME280;52445;52.466;-1.016;2022-10-26T06:14:18;99099.50;;;14.95;79.27
65718;BME280;52445;52.466;-1.016;2022-10-26T06:25:34;99130.22;;;14.86;78.26
65718;BME280;52445;52.466;-1.016;2022-10-26T06:31:12;99130.13;;;14.89;77.88
65718;BME280;52445;52.466;-1.016;2022-10-26T06:33:40;99123.09;;;14.92;77.81
65718;BME280;52445;52.466;-1.016;2022-10-26T06:38:54;99125.00;;;14.86;77.35
65718;BME280;52445;52.466;-1.016;2022-10-26T06:41:22;99113.78;;;14.84;76.96
65718;BME280;52445;52.466;-1.016;2022-10-26T06:43:49;99122.50;;;14.83;77.24
65718;BME280;52445;52.466;-1.016;2022-10-26T06:57:21;99113.59;;;14.63;77.14
65718;BME280;52445;52.466;-1.016;2022-10-26T07:02:26;99131.06;;;14.61;77.23
65718;BME280;52445;52.466;-1.016;2022-10-26T07:04:53;99137.97;;;14.62;76.89
65718;BME280;52445;52.466;-1.016;2022-10-26T07:07:22;99127.63;;;14.59;77.52
65718;BME280;52445;52.466;-1.016;2022-10-26T07:09:49;99136.56;;;14.52;77.88
65718;BME280;52445;52.466;-1.016;2022-10-26T07:12:16;99145.00;;;14.60;77.41
65718;BME280;52445;52.466;-1.016;2022-10-26T07:14:43;99154.34;;;14.66;77.57
65718;BME280;52445;52.466;-1.016;2022-10-26T07:17:10;99151.53;;;14.72;77.65
65718;BME280;52445;52.466;-1.016;2022-10-26T07:19:37;99144.56;;;14.73;77.69
65718;BME280;52445;52.466;-1.016;2022-10-26T07:22:05;99151.47;;;14.74;77.48
65718;BME280;52445;52.466;-1.016;2022-10-26T07:24:32;99147.88;;;14.78;77.68
65718;BME280;52445;52.466;-1.016;2022-10-26T07:26:58;99149.59;;;14.79;77.89
65718;BME280;52445;52.466;-1.016;2022-10-26T07:29:26;99142.69;;;14.78;77.67
65718;BME280;52445;52.466;-1.016;2022-10-26T07:31:53;99142.69;;;14.78;78.07
65718;BME280;52445;52.466;-1.016;2022-10-26T07:34:25;99140.97;;;14.77;78.15
65718;BME280;52445;52.466;-1.016;2022-10-26T07:36:51;99149.59;;;14.79;78.07
65718;BME280;52445;52.466;-1.016;2022-10-26T07:39:18;99159.25;;;14.75;78.11
65718;BME280;52445;52.466;-1.016;2022-10-26T07:41:44;99153.97;;;14.78;78.42
65718;BME280;52445;52.466;-1.016;2022-10-26T07:44:12;99155.56;;;14.83;78.13
65718;BME280;52445;52.466;-1.016;2022-10-26T07:46:38;99155.50;;;14.84;77.99
65718;BME280;52445;52.466;-1.016;2022-10-26T07:49:05;99143.09;;;14.91;78.31
65718;BME280;52445;52.466;-1.016;2022-10-26T07:51:31;99157.47;;;15.03;77.84
65718;BME280;52445;52.466;-1.016;2022-10-26T07:53:58;99164.28;;;15.07;77.62
65718;BME280;52445;52.466;-1.016;2022-10-26T07:56:25;99162.34;;;15.12;77.20
65718;BME280;52445;52.466;-1.016;2022-10-26T07:58:52;99162.00;;;15.22;77.68
65718;BME280;52445;52.466;-1.016;2022-10-26T08:01:19;99167.00;;;15.28;77.36
65718;BME280;52445;52.466;-1.016;2022-10-26T08:03:46;99165.19;;;15.30;77.14
65718;BME280;52445;52.466;-1.016;2022-10-26T08:06:13;99182.56;;;15.31;77.49
65718;BME280;52445;52.466;-1.016;2022-10-26T08:08:39;99179.94;;;15.31;77.49
65718;BME280;52445;52.466;-1.016;2022-10-26T08:11:13;99181.75;;;15.29;77.62
65718;BME280;52445;52.466;-1.016;2022-10-26T08:13:40;99180.81;;;15.30;77.20
65718;BME280;52445;52.466;-1.016;2022-10-26T08:16:07;99181.47;;;15.37;77.41
65718;BME280;52445;52.466;-1.016;2022-10-26T08:18:33;99179.66;;;15.39;77.49
65718;BME280;52445;52.466;-1.016;2022-10-26T08:21:02;99176.78;;;15.47;77.58
65718;BME280;52445;52.466;-1.016;2022-10-26T08:23:37;99173.25;;;15.48;77.10
65718;BME280;52445;52.466;-1.016;2022-10-26T08:26:04;99173.97;;;15.51;77.71
65718;BME280;52445;52.466;-1.016;2022-10-26T08:28:31;99167.91;;;15.51;77.54
65718;BME280;52445;52.466;-1.016;2022-10-26T08:30:58;99163.63;;;15.50;78.06
65718;BME280;52445;52.466;-1.016;2022-10-26T08:33:25;99171.19;;;15.56;78.10
65718;BME280;52445;52.466;-1.016;2022-10-26T08:35:56;99169.41;;;15.58;77.48
65718;BME280;52445;52.466;-1.016;2022-10-26T08:38:23;99177.88;;;15.63;77.41
65718;BME280;52445;52.466;-1.016;2022-10-26T08:40:50;99176.09;;;15.65;78.28
65718;BME280;52445;52.466;-1.016;2022-10-26T08:43:23;99183.97;;;15.64;78.01
65718;BME280;52445;52.466;-1.016;2022-10-26T08:48:31;99193.09;;;15.76;77.94
65718;BME280;52445;52.466;-1.016;2022-10-26T08:51:06;99203.53;;;15.76;77.98
65718;BME280;52445;52.466;-1.016;2022-10-26T08:53:41;99213.34;;;15.69;78.42
65718;BME280;52445;52.466;-1.016;2022-10-26T08:58:49;99222.59;;;15.78;78.59
65718;BME280;52445;52.466;-1.016;2022-10-26T09:01:17;99222.59;;;15.78;78.50
65718;BME280;52445;52.466;-1.016;2022-10-26T09:03:44;99226.00;;;15.80;79.08
65718;BME280;52445;52.466;-1.016;2022-10-26T09:14:20;99244.84;;;16.57;77.70
65718;BME280;52445;52.466;-1.016;2022-10-26T09:17:00;99241.06;;;16.64;77.79
65718;BME280;52445;52.466;-1.016;2022-10-26T09:24:53;99245.09;;;17.15;76.34
65718;BME280;52445;52.466;-1.016;2022-10-26T09:27:29;99251.19;;;17.95;75.91
65718;BME280;52445;52.466;-1.016;2022-10-26T09:30:03;99266.53;;;18.96;75.29
65718;BME280;52445;52.466;-1.016;2022-10-26T09:35:22;99263.31;;;20.42;70.93
65718;BME280;52445;52.466;-1.016;2022-10-26T09:37:54;99266.59;;;20.93;68.92
65718;BME280;52445;52.466;-1.016;2022-10-26T09:45:50;99281.63;;;20.44;65.54
65718;BME280;52445;52.466;-1.016;2022-10-26T09:48:40;99284.63;;;19.88;65.60
65718;BME280;52445;52.466;-1.016;2022-10-26T09:51:08;99277.63;;;19.55;66.69
65718;BME280;52445;52.466;-1.016;2022-10-26T09:53:36;99292.63;;;19.35;67.75
65718;BME280;52445;52.466;-1.016;2022-10-26T09:56:05;99285.13;;;19.78;68.56
65718;BME280;52445;52.466;-1.016;2022-10-26T09:58:41;99290.91;;;20.66;67.49
65718;BME280;52445;52.466;-1.016;2022-10-26T10:01:30;99295.59;;;21.08;66.31
65718;BME280;52445;52.466;-1.016;2022-10-26T10:07:11;99301.13;;;21.63;64.67
65718;BME280;52445;52.466;-1.016;2022-10-26T10:09:38;99309.00;;;21.48;63.16
65718;BME280;52445;52.466;-1.016;2022-10-26T10:12:05;99312.84;;;21.28;62.85
65718;BME280;52445;52.466;-1.016;2022-10-26T10:14:55;99330.69;;;21.53;62.78
65718;BME280;52445;52.466;-1.016;2022-10-26T10:17:22;99318.72;;;21.48;62.61
65718;BME280;52445;52.466;-1.016;2022-10-26T10:19:50;99318.59;;;21.35;62.16
65718;BME280;52445;52.466;-1.016;2022-10-26T10:22:19;99333.66;;;21.47;62.47
65718;BME280;52445;52.466;-1.016;2022-10-26T10:24:56;99338.25;;;21.89;61.68
65718;BME280;52445;52.466;-1.016;2022-10-26T10:27:24;99333.16;;;22.15;61.21
65718;BME280;52445;52.466;-1.016;2022-10-26T10:29:53;99342.59;;;22.32;59.94
65718;BME280;52445;52.466;-1.016;2022-10-26T10:32:29;99344.88;;;22.38;59.73
65718;BME280;52445;52.466;-1.016;2022-10-26T10:35:21;99353.56;;;22.26;59.61
65718;BME280;52445;52.466;-1.016;2022-10-26T10:37:49;99351.63;;;22.00;59.40
65718;BME280;52445;52.466;-1.016;2022-10-26T10:43:13;99350.06;;;21.67;59.03
65718;BME280;52445;52.466;-1.016;2022-10-26T10:45:40;99363.72;;;21.59;59.83
65718;BME280;52445;52.466;-1.016;2022-10-26T10:50:57;99371.09;;;21.38;59.20
65718;BME280;52445;52.466;-1.016;2022-10-26T10:59:04;99383.19;;;20.95;59.19
65718;BME280;52445;52.466;-1.016;2022-10-26T11:01:39;99387.84;;;20.90;59.02
65718;BME280;52445;52.466;-1.016;2022-10-26T11:06:53;99386.81;;;20.76;59.92
65718;BME280;52445;52.466;-1.016;2022-10-26T11:09:26;99406.50;;;20.69;59.24
65718;BME280;52445;52.466;-1.016;2022-10-26T11:12:00;99410.41;;;20.62;58.97
65718;BME280;52445;52.466;-1.016;2022-10-26T11:14:36;99415.81;;;20.59;59.04
65718;BME280;52445;52.466;-1.016;2022-10-26T11:17:15;99416.34;;;20.49;58.60
65718;BME280;52445;52.466;-1.016;2022-10-26T11:20:03;99433.88;;;20.33;58.71
65718;BME280;52445;52.466;-1.016;2022-10-26T11:22:41;99434.28;;;20.25;58.13
65718;BME280;52445;52.466;-1.016;2022-10-26T11:25:16;99436.53;;;20.15;58.83
65718;BME280;52445;52.466;-1.016;2022-10-26T11:27:47;99432.53;;;20.08;59.36
65718;BME280;52445;52.466;-1.016;2022-10-26T11:30:19;99441.38;;;20.07;59.44
65718;BME280;52445;52.466;-1.016;2022-10-26T11:33:08;99440.84;;;20.00;59.32
65718;BME280;52445;52.466;-1.016;2022-10-26T11:38:46;99445.84;;;20.04;59.53
65718;BME280;52445;52.466;-1.016;2022-10-26T11:41:35;99437.50;;;20.14;59.67
65718;BME280;52445;52.466;-1.016;2022-10-26T11:46:43;99440.78;;;20.17;58.50
65718;BME280;52445;52.466;-1.016;2022-10-26T11:52:15;99461.72;;;20.03;58.31
65718;BME280;52445;52.466;-1.016;2022-10-26T11:57:23;99455.03;;;19.96;57.87
65718;BME280;52445;52.466;-1.016;2022-10-26T11:59:54;99466.06;;;19.85;57.80
65718;BME280;52445;52.466;-1.016;2022-10-26T12:02:23;99465.78;;;19.73;57.71
65718;BME280;52445;52.466;-1.016;2022-10-26T12:04:55;99467.94;;;19.65;57.85
65718;BME280;52445;52.466;-1.016;2022-10-26T12:07:27;99468.00;;;19.63;58.26
65718;BME280;52445;52.466;-1.016;2022-10-26T12:09:55;99460.84;;;19.67;58.21
65718;BME280;52445;52.466;-1.016;2022-10-26T12:15:27;99474.91;;;19.66;56.43
65718;BME280;52445;52.466;-1.016;2022-10-26T12:18:28;99478.38;;;19.67;56.86
65718;BME280;52445;52.466;-1.016;2022-10-26T12:21:19;99485.25;;;19.69;57.06
65718;BME280;52445;52.466;-1.016;2022-10-26T12:29:23;99493.06;;;19.71;56.44
65718;BME280;52445;52.466;-1.016;2022-10-26T12:31:51;99504.50;;;19.70;56.84
65718;BME280;52445;52.466;-1.016;2022-10-26T12:37:31;99510.56;;;19.52;56.62
65718;BME280;52445;52.466;-1.016;2022-10-26T12:48:48;99535.44;;;19.45;56.57
65718;BME280;52445;52.466;-1.016;2022-10-26T12:54:19;99553.06;;;19.43;56.92
65718;BME280;52445;52.466;-1.016;2022-10-26T12:56:56;99554.00;;;19.60;57.08
65718;BME280;52445;52.466;-1.016;2022-10-26T13:08:09;99560.34;;;19.73;55.16
65718;BME280;52445;52.466;-1.016;2022-10-26T13:10:42;99560.53;;;19.70;55.65
65718;BME280;52445;52.466;-1.016;2022-10-26T13:13:21;99560.66;;;19.67;55.91
65718;BME280;52445;52.466;-1.016;2022-10-26T13:15:54;99570.31;;;19.67;56.25
65718;BME280;52445;52.466;-1.016;2022-10-26T13:18:22;99556.41;;;19.64;56.32
65718;BME280;52445;52.466;-1.016;2022-10-26T13:20:59;99564.50;;;19.60;56.42
65718;BME280;52445;52.466;-1.016;2022-10-26T13:23:31;99577.09;;;19.53;55.86
65718;BME280;52445;52.466;-1.016;2022-10-26T13:26:17;99568.22;;;19.36;55.52
65718;BME280;52445;52.466;-1.016;2022-10-26T13:39:30;99574.50;;;19.14;57.65
65718;BME280;52445;52.466;-1.016;2022-10-26T13:42:01;99571.94;;;19.13;57.79
65718;BME280;52445;52.466;-1.016;2022-10-26T13:44:49;99573.94;;;19.08;57.78
65718;BME280;52445;52.466;-1.016;2022-10-26T13:58:12;99577.25;;;19.11;57.43
65718;BME280;52445;52.466;-1.016;2022-10-26T14:01:03;99587.41;;;18.98;57.62
65718;BME280;52445;52.466;-1.016;2022-10-26T14:03:30;99581.25;;;18.99;58.13
65718;BME280;52445;52.466;-1.016;2022-10-26T14:05:57;99579.69;;;18.95;58.23
65718;BME280;52445;52.466;-1.016;2022-10-26T14:08:24;99581.53;;;18.93;58.34
65718;BME280;52445;52.466;-1.016;2022-10-26T14:10:54;99576.69;;;18.84;58.61
65718;BME280;52445;52.466;-1.016;2022-10-26T14:13:24;99591.59;;;18.83;58.86
65718;BME280;52445;52.466;-1.016;2022-10-26T14:15:53;99583.94;;;18.79;58.58
65718;BME280;52445;52.466;-1.016;2022-10-26T14:18:29;99584.22;;;18.72;58.49
65718;BME280;52445;52.466;-1.016;2022-10-26T14:26:18;99591.69;;;18.61;57.92
65718;BME280;52445;52.466;-1.016;2022-10-26T14:28:48;99594.38;;;18.59;58.02
65718;BME280;52445;52.466;-1.016;2022-10-26T14:31:36;99598.13;;;18.54;58.36
65718;BME280;52445;52.466;-1.016;2022-10-26T14:34:04;99602.84;;;18.45;58.66
65718;BME280;52445;52.466;-1.016;2022-10-26T14:36:35;99608.41;;;18.37;58.04
65718;BME280;52445;52.466;-1.016;2022-10-26T14:39:08;99606.91;;;18.32;58.83
65718;BME280;52445;52.466;-1.016;2022-10-26T14:41:39;99601.00;;;18.27;58.28
65718;BME280;52445;52.466;-1.016;2022-10-26T14:44:15;99623.03;;;18.22;58.54
65718;BME280;52445;52.466;-1.016;2022-10-26T14:46:43;99610.97;;;18.18;58.30
65718;BME280;52445;52.466;-1.016;2022-10-26T14:49:26;99614.69;;;18.13;58.28
65718;BME280;52445;52.466;-1.016;2022-10-26T14:51:58;99611.22;;;18.12;57.86
65718;BME280;52445;52.466;-1.016;2022-10-26T14:54:27;99627.66;;;18.16;58.54
65718;BME280;52445;52.466;-1.016;2022-10-26T14:56:54;99625.88;;;18.16;59.13
65718;BME280;52445;52.466;-1.016;2022-10-26T15:02:14;99632.28;;;18.09;58.50
65718;BME280;52445;52.466;-1.016;2022-10-26T15:04:57;99634.22;;;18.04;58.69
65718;BME280;52445;52.466;-1.016;2022-10-26T15:07:34;99640.50;;;17.99;58.75
65718;BME280;52445;52.466;-1.016;2022-10-26T15:10:01;99643.84;;;18.03;59.35
65718;BME280;52445;52.466;-1.016;2022-10-26T15:15:18;99657.81;;;18.04;59.11
65718;BME280;52445;52.466;-1.016;2022-10-26T15:17:54;99658.59;;;18.06;59.88
65718;BME280;52445;52.466;-1.016;2022-10-26T15:20:22;99664.91;;;18.00;59.35
65718;BME280;52445;52.466;-1.016;2022-10-26T15:22:55;99652.03;;;17.95;59.20
65718;BME280;52445;52.466;-1.016;2022-10-26T15:25:25;99674.78;;;17.93;59.67
65718;BME280;52445;52.466;-1.016;2022-10-26T15:27:53;99678.44;;;17.89;60.40
65718;BME280;52445;52.466;-1.016;2022-10-26T15:30:27;99678.69;;;17.83;59.98
65718;BME280;52445;52.466;-1.016;2022-10-26T15:32:54;99671.94;;;17.77;60.33
65718;BME280;52445;52.466;-1.016;2022-10-26T15:35:25;99677.34;;;17.72;60.34
65718;BME280;52445;52.466;-1.016;2022-10-26T15:37:53;99679.28;;;17.67;59.81
65718;BME280;52445;52.466;-1.016;2022-10-26T15:40:21;99677.81;;;17.60;60.00
65718;BME280;52445;52.466;-1.016;2022-10-26T15:42:50;99677.94;;;17.57;60.06
65718;BME280;52445;52.466;-1.016;2022-10-26T15:45:23;99683.44;;;17.49;60.44
65718;BME280;52445;52.466;-1.016;2022-10-26T15:47:52;99686.25;;;17.44;60.58
65718;BME280;52445;52.466;-1.016;2022-10-26T15:50:23;99688.88;;;17.44;60.75
65718;BME280;52445;52.466;-1.016;2022-10-26T15:52:55;99698.75;;;17.36;60.11
65718;BME280;52445;52.466;-1.016;2022-10-26T15:55:24;99700.63;;;17.32;60.74
65718;BME280;52445;52.466;-1.016;2022-10-26T15:57:50;99693.88;;;17.27;60.40
65718;BME280;52445;52.466;-1.016;2022-10-26T16:00:18;99694.03;;;17.22;60.36
65718;BME280;52445;52.466;-1.016;2022-10-26T16:02:45;99693.41;;;17.15;61.17
65718;BME280;52445;52.466;-1.016;2022-10-26T16:05:13;99699.69;;;17.09;60.78
65718;BME280;52445;52.466;-1.016;2022-10-26T16:07:43;99703.28;;;17.07;61.28
65718;BME280;52445;52.466;-1.016;2022-10-26T16:10:14;99700.84;;;17.01;61.50